sensor_id;sensor_type;location;lat;lon;timestamp;temperature;humidity
78289;DHT22;67539;48.752;12.922;2024-01-16T00:01:04;-0.30;99.90
78289;DHT22;67539;48.752;12.922;2024-01-16T00:03:33;-0.30;99.90
78289;DHT22;67539;48.752;12.922;2024-01-16T00:06:03;-0.30;99.90
78289;DHT22;67539;48.752;12.922;2024-01-16T00:08:31;-0.30;99.90
78289;DHT22;67539;48.752;12.922;2024-01-16T00:11:01;-0.30;99.90
78289;DHT22;67539;48.752;12.922;2024-01-16T00:13:30;-0.30;99.90
78289;DHT22;67539;48.752;12.922;2024-01-16T00:16:01;-0.30;99.90
78289;DHT22;67539;48.752;12.922;2024-01-16T00:18:29;-0.30;99.90
78289;DHT22;67539;48.752;12.922;2024-01-16T00:20:59;-0.30;99.90
78289;DHT22;67539;48.752;12.922;2024-01-16T00:23:30;-0.30;99.90
78289;DHT22;67539;48.752;12.922;2024-01-16T00:26:00;-0.30;99.90
78289;DHT22;67539;48.752;12.922;2024-01-16T00:28:28;-0.30;99.90
78289;DHT22;67539;48.752;12.922;2024-01-16T00:30:56;-0.30;99.90
78289;DHT22;67539;48.752;12.922;2024-01-16T00:33:25;-0.30;99.90
78289;DHT22;67539;48.752;12.922;2024-01-16T00:35:54;-0.30;99.90
78289;DHT22;67539;48.752;12.922;2024-01-16T00:38:23;-0.30;99.90
78289;DHT22;67539;48.752;12.922;2024-01-16T00:40:52;-0.30;99.90
78289;DHT22;67539;48.752;12.922;2024-01-16T00:43:20;-0.30;99.90
78289;DHT22;67539;48.752;12.922;2024-01-16T00:45:49;-0.30;99.90
78289;DHT22;67539;48.752;12.922;2024-01-16T00:48:17;-0.30;99.90
78289;DHT22;67539;48.752;12.922;2024-01-16T00:50:47;-0.20;99.90
78289;DHT22;67539;48.752;12.922;2024-01-16T00:53:16;-0.20;99.90
78289;DHT22;67539;48.752;12.922;2024-01-16T00:55:45;-0.20;99.90
78289;DHT22;67539;48.752;12.922;2024-01-16T00:58:14;-0.20;99.90
78289;DHT22;67539;48.752;12.922;2024-01-16T01:00:43;-0.20;99.90
78289;DHT22;67539;48.752;12.922;2024-01-16T01:03:11;-0.20;99.90
78289;DHT22;67539;48.752;12.922;2024-01-16T01:05:40;-0.20;99.90
78289;DHT22;67539;48.752;12.922;2024-01-16T01:08:08;-0.20;99.90
78289;DHT22;67539;48.752;12.922;2024-01-16T01:10:37;-0.20;99.90
78289;DHT22;67539;48.752;12.922;2024-01-16T01:13:05;-0.20;99.90
78289;DHT22;67539;48.752;12.922;2024-01-16T01:15:35;-0.10;99.90
78289;DHT22;67539;48.752;12.922;2024-01-16T01:18:03;-0.20;99.90
78289;DHT22;67539;48.752;12.922;2024-01-16T01:20:33;-0.10;99.90
78289;DHT22;67539;48.752;12.922;2024-01-16T01:23:01;-0.10;99.90
78289;DHT22;67539;48.752;12.922;2024-01-16T01:25:30;-0.20;99.90
78289;DHT22;67539;48.752;12.922;2024-01-16T01:27:58;-0.20;99.90
78289;DHT22;67539;48.752;12.922;2024-01-16T01:30:27;-0.20;99.90
78289;DHT22;67539;48.752;12.922;2024-01-16T01:32:57;-0.20;99.90
78289;DHT22;67539;48.752;12.922;2024-01-16T01:35:25;-0.20;99.90
78289;DHT22;67539;48.752;12.922;2024-01-16T01:37:54;-0.20;99.90
78289;DHT22;67539;48.752;12.922;2024-01-16T01:40:23;-0.20;99.90
78289;DHT22;67539;48.752;12.922;2024-01-16T01:42:51;-0.20;99.90
78289;DHT22;67539;48.752;12.922;2024-01-16T01:45:19;-0.20;99.90
78289;DHT22;67539;48.752;12.922;2024-01-16T01:47:48;-0.20;99.90
78289;DHT22;67539;48.752;12.922;2024-01-16T01:50:18;-0.10;99.90
78289;DHT22;67539;48.752;12.922;2024-01-16T01:52:47;-0.10;99.90
78289;DHT22;67539;48.752;12.922;2024-01-16T01:55:16;-0.10;99.90
78289;DHT22;67539;48.752;12.922;2024-01-16T01:57:44;-0.10;99.90
78289;DHT22;67539;48.752;12.922;2024-01-16T02:00:13;-0.10;99.90
78289;DHT22;67539;48.752;12.922;2024-01-16T02:02:45;-0.10;99.90
78289;DHT22;67539;48.752;12.922;2024-01-16T02:05:14;-0.10;99.90
78289;DHT22;67539;48.752;12.922;2024-01-16T02:07:44;-0.10;99.90
78289;DHT22;67539;48.752;12.922;2024-01-16T02:10:13;-0.10;99.90
78289;DHT22;67539;48.752;12.922;2024-01-16T02:12:41;-0.10;99.90
78289;DHT22;67539;48.752;12.922;2024-01-16T02:15:09;-0.20;99.90
78289;DHT22;67539;48.752;12.922;2024-01-16T02:17:38;-0.20;99.90
78289;DHT22;67539;48.752;12.922;2024-01-16T02:20:07;-0.10;99.90
78289;DHT22;67539;48.752;12.922;2024-01-16T02:22:36;-0.20;99.90
78289;DHT22;67539;48.752;12.922;2024-01-16T02:25:07;-0.20;99.90
78289;DHT22;67539;48.752;12.922;2024-01-16T02:27:36;-0.20;99.90
78289;DHT22;67539;48.752;12.922;2024-01-16T02:30:05;-0.10;99.90
78289;DHT22;67539;48.752;12.922;2024-01-16T02:32:34;-0.20;99.90
78289;DHT22;67539;48.752;12.922;2024-01-16T02:35:03;-0.10;99.90
78289;DHT22;67539;48.752;12.922;2024-01-16T02:37:32;-0.20;99.90
78289;DHT22;67539;48.752;12.922;2024-01-16T02:40:00;-0.20;99.90
78289;DHT22;67539;48.752;12.922;2024-01-16T02:42:34;-0.20;99.90
78289;DHT22;67539;48.752;12.922;2024-01-16T02:45:04;-0.20;99.90
78289;DHT22;67539;48.752;12.922;2024-01-16T02:47:33;-0.20;99.90
78289;DHT22;67539;48.752;12.922;2024-01-16T02:50:03;-0.20;99.90
78289;DHT22;67539;48.752;12.922;2024-01-16T02:52:32;-0.20;99.90
78289;DHT22;67539;48.752;12.922;2024-01-16T02:55:00;-0.20;99.90
78289;DHT22;67539;48.752;12.922;2024-01-16T02:57:29;-0.20;99.90
78289;DHT22;67539;48.752;12.922;2024-01-16T02:59:59;-0.30;99.90
78289;DHT22;67539;48.752;12.922;2024-01-16T03:02:27;-0.30;99.90
78289;DHT22;67539;48.752;12.922;2024-01-16T03:04:56;-0.30;99.90
78289;DHT22;67539;48.752;12.922;2024-01-16T03:07:24;-0.20;99.90
78289;DHT22;67539;48.752;12.922;2024-01-16T03:09:52;-0.30;99.90
78289;DHT22;67539;48.752;12.922;2024-01-16T03:12:21;-0.20;99.90
78289;DHT22;67539;48.752;12.922;2024-01-16T03:14:49;-0.30;99.90
78289;DHT22;67539;48.752;12.922;2024-01-16T03:17:19;-0.30;99.90
78289;DHT22;67539;48.752;12.922;2024-01-16T03:19:47;-0.30;99.90
78289;DHT22;67539;48.752;12.922;2024-01-16T03:22:16;-0.30;99.90
78289;DHT22;67539;48.752;12.922;2024-01-16T03:24:45;-0.30;99.90
78289;DHT22;67539;48.752;12.922;2024-01-16T03:27:14;-0.30;99.90
78289;DHT22;67539;48.752;12.922;2024-01-16T03:29:42;-0.30;99.90
78289;DHT22;67539;48.752;12.922;2024-01-16T03:32:10;-0.30;99.90
78289;DHT22;67539;48.752;12.922;2024-01-16T03:34:40;-0.30;99.90
78289;DHT22;67539;48.752;12.922;2024-01-16T03:37:09;-0.30;99.90
78289;DHT22;67539;48.752;12.922;2024-01-16T03:39:37;-0.30;99.90
78289;DHT22;67539;48.752;12.922;2024-01-16T03:42:06;-0.40;99.90
78289;DHT22;67539;48.752;12.922;2024-01-16T03:44:38;-0.40;99.90
78289;DHT22;67539;48.752;12.922;2024-01-16T03:47:07;-0.40;99.90
78289;DHT22;67539;48.752;12.922;2024-01-16T03:49:35;-0.40;99.90
78289;DHT22;67539;48.752;12.922;2024-01-16T03:52:05;-0.40;99.90
78289;DHT22;67539;48.752;12.922;2024-01-16T03:54:34;-0.40;99.90
78289;DHT22;67539;48.752;12.922;2024-01-16T03:57:03;-0.40;99.90
78289;DHT22;67539;48.752;12.922;2024-01-16T03:59:31;-0.40;99.90
78289;DHT22;67539;48.752;12.922;2024-01-16T04:02:00;-0.40;99.90
78289;DHT22;67539;48.752;12.922;2024-01-16T04:04:30;-0.50;99.90
78289;DHT22;67539;48.752;12.922;2024-01-16T04:06:59;-0.50;99.90
78289;DHT22;67539;48.752;12.922;2024-01-16T04:09:29;-0.50;99.90
78289;DHT22;67539;48.752;12.922;2024-01-16T04:11:57;-0.50;99.90
78289;DHT22;67539;48.752;12.922;2024-01-16T04:14:25;-0.40;99.90
78289;DHT22;67539;48.752;12.922;2024-01-16T04:16:54;-0.50;99.90
78289;DHT22;67539;48.752;12.922;2024-01-16T04:19:22;-0.50;99.90
78289;DHT22;67539;48.752;12.922;2024-01-16T04:21:51;-0.50;99.90
78289;DHT22;67539;48.752;12.922;2024-01-16T04:24:19;-0.50;99.90
78289;DHT22;67539;48.752;12.922;2024-01-16T04:26:49;-0.50;99.90
78289;DHT22;67539;48.752;12.922;2024-01-16T04:29:18;-0.60;99.90
78289;DHT22;67539;48.752;12.922;2024-01-16T04:31:46;-0.60;99.90
78289;DHT22;67539;48.752;12.922;2024-01-16T04:34:14;-0.60;99.90
78289;DHT22;67539;48.752;12.922;2024-01-16T04:36:43;-0.60;99.90
78289;DHT22;67539;48.752;12.922;2024-01-16T04:39:11;-0.60;99.90
78289;DHT22;67539;48.752;12.922;2024-01-16T04:41:40;-0.60;99.90
78289;DHT22;67539;48.752;12.922;2024-01-16T04:44:10;-0.70;99.90
78289;DHT22;67539;48.752;12.922;2024-01-16T04:46:39;-0.70;99.90
78289;DHT22;67539;48.752;12.922;2024-01-16T04:49:08;-0.70;99.90
78289;DHT22;67539;48.752;12.922;2024-01-16T04:51:36;-0.70;99.90
78289;DHT22;67539;48.752;12.922;2024-01-16T04:54:05;-0.80;99.90
78289;DHT22;67539;48.752;12.922;2024-01-16T04:56:33;-0.80;99.90
78289;DHT22;67539;48.752;12.922;2024-01-16T04:59:02;-0.80;99.90
78289;DHT22;67539;48.752;12.922;2024-01-16T05:01:32;-0.90;99.90
78289;DHT22;67539;48.752;12.922;2024-01-16T05:04:00;-0.90;99.90
78289;DHT22;67539;48.752;12.922;2024-01-16T05:06:30;-0.90;99.90
78289;DHT22;67539;48.752;12.922;2024-01-16T05:08:59;-1.00;99.90
78289;DHT22;67539;48.752;12.922;2024-01-16T05:11:28;-1.00;99.90
78289;DHT22;67539;48.752;12.922;2024-01-16T05:13:56;-1.00;99.90
78289;DHT22;67539;48.752;12.922;2024-01-16T05:16:25;-1.00;99.90
78289;DHT22;67539;48.752;12.922;2024-01-16T05:18:55;-1.00;99.90
78289;DHT22;67539;48.752;12.922;2024-01-16T05:21:23;-1.00;99.90
78289;DHT22;67539;48.752;12.922;2024-01-16T05:23:51;-1.00;99.90
78289;DHT22;67539;48.752;12.922;2024-01-16T05:26:20;-1.00;99.90
78289;DHT22;67539;48.752;12.922;2024-01-16T05:28:49;-1.00;99.90
78289;DHT22;67539;48.752;12.922;2024-01-16T05:31:17;-1.00;99.90
78289;DHT22;67539;48.752;12.922;2024-01-16T05:33:46;-1.00;99.90
78289;DHT22;67539;48.752;12.922;2024-01-16T05:36:16;-1.00;99.90
78289;DHT22;67539;48.752;12.922;2024-01-16T05:38:45;-1.00;99.90
78289;DHT22;67539;48.752;12.922;2024-01-16T05:41:13;-1.00;99.90
78289;DHT22;67539;48.752;12.922;2024-01-16T05:43:42;-1.10;99.90
78289;DHT22;67539;48.752;12.922;2024-01-16T05:46:10;-1.00;99.90
78289;DHT22;67539;48.752;12.922;2024-01-16T05:48:38;-1.00;99.90
78289;DHT22;67539;48.752;12.922;2024-01-16T05:51:07;-1.00;99.90
78289;DHT22;67539;48.752;12.922;2024-01-16T05:53:37;-1.00;99.90
78289;DHT22;67539;48.752;12.922;2024-01-16T05:56:06;-1.00;99.90
78289;DHT22;67539;48.752;12.922;2024-01-16T05:58:35;-1.00;99.90
78289;DHT22;67539;48.752;12.922;2024-01-16T06:01:06;-1.00;99.90
78289;DHT22;67539;48.752;12.922;2024-01-16T06:03:34;-1.00;99.90
78289;DHT22;67539;48.752;12.922;2024-01-16T06:06:02;-1.00;99.90
78289;DHT22;67539;48.752;12.922;2024-01-16T06:08:31;-1.00;99.90
78289;DHT22;67539;48.752;12.922;2024-01-16T06:11:01;-1.00;99.90
78289;DHT22;67539;48.752;12.922;2024-01-16T06:13:29;-0.90;99.90
78289;DHT22;67539;48.752;12.922;2024-01-16T06:15:58;-0.90;99.90
78289;DHT22;67539;48.752;12.922;2024-01-16T06:18:27;-0.90;99.90
78289;DHT22;67539;48.752;12.922;2024-01-16T06:20:55;-0.90;99.90
78289;DHT22;67539;48.752;12.922;2024-01-16T06:23:25;-0.80;99.90
78289;DHT22;67539;48.752;12.922;2024-01-16T06:25:53;-0.80;99.90
78289;DHT22;67539;48.752;12.922;2024-01-16T06:28:23;-0.80;99.90
78289;DHT22;67539;48.752;12.922;2024-01-16T06:30:51;-0.80;99.90
78289;DHT22;67539;48.752;12.922;2024-01-16T06:33:19;-0.80;99.90
78289;DHT22;67539;48.752;12.922;2024-01-16T06:35:48;-0.80;99.90
78289;DHT22;67539;48.752;12.922;2024-01-16T06:38:20;-0.80;99.90
78289;DHT22;67539;48.752;12.922;2024-01-16T06:40:48;-0.70;99.90
78289;DHT22;67539;48.752;12.922;2024-01-16T06:43:17;-0.70;99.90
78289;DHT22;67539;48.752;12.922;2024-01-16T06:45:47;-0.80;99.90
78289;DHT22;67539;48.752;12.922;2024-01-16T06:48:16;-0.70;99.90
78289;DHT22;67539;48.752;12.922;2024-01-16T06:50:45;-0.80;99.90
78289;DHT22;67539;48.752;12.922;2024-01-16T06:53:13;-0.70;99.90
78289;DHT22;67539;48.752;12.922;2024-01-16T06:55:43;-0.70;99.90
78289;DHT22;67539;48.752;12.922;2024-01-16T06:58:11;-0.80;99.90
78289;DHT22;67539;48.752;12.922;2024-01-16T07:00:40;-0.80;99.90
78289;DHT22;67539;48.752;12.922;2024-01-16T07:03:11;-0.80;99.90
78289;DHT22;67539;48.752;12.922;2024-01-16T07:05:40;-0.80;99.90
78289;DHT22;67539;48.752;12.922;2024-01-16T07:08:10;-0.80;99.90
78289;DHT22;67539;48.752;12.922;2024-01-16T07:10:38;-0.80;99.90
78289;DHT22;67539;48.752;12.922;2024-01-16T07:13:07;-0.80;99.90
78289;DHT22;67539;48.752;12.922;2024-01-16T07:15:35;-0.80;99.90
78289;DHT22;67539;48.752;12.922;2024-01-16T07:18:04;-0.80;99.90
78289;DHT22;67539;48.752;12.922;2024-01-16T07:20:34;-0.80;99.90
78289;DHT22;67539;48.752;12.922;2024-01-16T07:23:03;-0.80;99.90
78289;DHT22;67539;48.752;12.922;2024-01-16T07:25:32;-0.80;99.90
78289;DHT22;67539;48.752;12.922;2024-01-16T07:28:00;-0.80;99.90
78289;DHT22;67539;48.752;12.922;2024-01-16T07:30:30;-0.80;99.90
78289;DHT22;67539;48.752;12.922;2024-01-16T07:32:58;-0.80;99.90
78289;DHT22;67539;48.752;12.922;2024-01-16T07:35:27;-0.80;99.90
78289;DHT22;67539;48.752;12.922;2024-01-16T07:37:57;-0.80;99.90
78289;DHT22;67539;48.752;12.922;2024-01-16T07:40:28;-0.80;99.90
78289;DHT22;67539;48.752;12.922;2024-01-16T07:42:57;-0.70;99.90
78289;DHT22;67539;48.752;12.922;2024-01-16T07:45:25;-0.70;99.90
78289;DHT22;67539;48.752;12.922;2024-01-16T07:47:53;-0.70;99.90
78289;DHT22;67539;48.752;12.922;2024-01-16T07:50:22;-0.70;99.90
78289;DHT22;67539;48.752;12.922;2024-01-16T07:52:50;-0.70;99.90
78289;DHT22;67539;48.752;12.922;2024-01-16T07:55:20;-0.70;99.90
78289;DHT22;67539;48.752;12.922;2024-01-16T07:57:51;-0.70;99.90
78289;DHT22;67539;48.752;12.922;2024-01-16T08:00:20;-0.70;99.90
78289;DHT22;67539;48.752;12.922;2024-01-16T08:02:49;-0.70;99.90
78289;DHT22;67539;48.752;12.922;2024-01-16T08:05:17;-0.70;99.90
78289;DHT22;67539;48.752;12.922;2024-01-16T08:07:49;-0.80;99.90
78289;DHT22;67539;48.752;12.922;2024-01-16T08:10:17;-0.80;99.90
78289;DHT22;67539;48.752;12.922;2024-01-16T08:12:47;-0.80;99.90
78289;DHT22;67539;48.752;12.922;2024-01-16T08:15:15;-0.80;99.90
78289;DHT22;67539;48.752;12.922;2024-01-16T08:17:44;-0.80;99.90
78289;DHT22;67539;48.752;12.922;2024-01-16T08:20:12;-0.80;99.90
78289;DHT22;67539;48.752;12.922;2024-01-16T08:22:41;-0.80;99.90
78289;DHT22;67539;48.752;12.922;2024-01-16T08:25:09;-0.70;99.90
78289;DHT22;67539;48.752;12.922;2024-01-16T08:27:37;-0.80;99.90
78289;DHT22;67539;48.752;12.922;2024-01-16T08:30:09;-0.80;99.90
78289;DHT22;67539;48.752;12.922;2024-01-16T08:32:38;-0.80;99.90
78289;DHT22;67539;48.752;12.922;2024-01-16T08:35:07;-0.80;99.90
78289;DHT22;67539;48.752;12.922;2024-01-16T08:37:36;-0.80;99.90
78289;DHT22;67539;48.752;12.922;2024-01-16T08:40:05;-0.70;99.90
78289;DHT22;67539;48.752;12.922;2024-01-16T08:42:34;-0.60;99.90
78289;DHT22;67539;48.752;12.922;2024-01-16T08:45:02;-0.60;99.90
78289;DHT22;67539;48.752;12.922;2024-01-16T08:47:33;-0.60;99.90
78289;DHT22;67539;48.752;12.922;2024-01-16T08:50:02;-0.60;99.90
78289;DHT22;67539;48.752;12.922;2024-01-16T08:52:30;-0.50;99.90
78289;DHT22;67539;48.752;12.922;2024-01-16T08:54:59;-0.50;99.90
78289;DHT22;67539;48.752;12.922;2024-01-16T08:57:27;-0.50;99.90
78289;DHT22;67539;48.752;12.922;2024-01-16T08:59:57;-0.50;99.90
78289;DHT22;67539;48.752;12.922;2024-01-16T09:02:25;-0.40;99.90
78289;DHT22;67539;48.752;12.922;2024-01-16T09:04:57;-0.40;99.90
78289;DHT22;67539;48.752;12.922;2024-01-16T09:07:27;-0.40;99.90
78289;DHT22;67539;48.752;12.922;2024-01-16T09:09:55;-0.40;99.90
78289;DHT22;67539;48.752;12.922;2024-01-16T09:12:23;-0.40;99.90
78289;DHT22;67539;48.752;12.922;2024-01-16T09:14:53;-0.40;99.90
78289;DHT22;67539;48.752;12.922;2024-01-16T09:17:22;-0.40;99.90
78289;DHT22;67539;48.752;12.922;2024-01-16T09:19:50;-0.30;99.90
78289;DHT22;67539;48.752;12.922;2024-01-16T09:22:20;-0.30;99.90
78289;DHT22;67539;48.752;12.922;2024-01-16T09:24:48;-0.40;99.90
78289;DHT22;67539;48.752;12.922;2024-01-16T09:27:17;-0.30;99.90
78289;DHT22;67539;48.752;12.922;2024-01-16T09:29:45;-0.30;99.90
78289;DHT22;67539;48.752;12.922;2024-01-16T09:32:14;-0.30;99.90
78289;DHT22;67539;48.752;12.922;2024-01-16T09:34:42;-0.30;99.90
78289;DHT22;67539;48.752;12.922;2024-01-16T09:37:10;-0.30;99.90
78289;DHT22;67539;48.752;12.922;2024-01-16T09:39:43;-0.20;99.90
78289;DHT22;67539;48.752;12.922;2024-01-16T09:42:11;-0.20;99.90
78289;DHT22;67539;48.752;12.922;2024-01-16T09:44:40;-0.10;99.90
78289;DHT22;67539;48.752;12.922;2024-01-16T09:47:10;-0.10;99.90
78289;DHT22;67539;48.752;12.922;2024-01-16T09:49:39;0.00;99.90
78289;DHT22;67539;48.752;12.922;2024-01-16T09:52:08;0.10;99.90
78289;DHT22;67539;48.752;12.922;2024-01-16T09:54:37;0.10;99.90
78289;DHT22;67539;48.752;12.922;2024-01-16T09:57:07;0.10;99.90
78289;DHT22;67539;48.752;12.922;2024-01-16T09:59:36;0.10;99.90
78289;DHT22;67539;48.752;12.922;2024-01-16T10:02:08;0.10;99.90
78289;DHT22;67539;48.752;12.922;2024-01-16T10:04:38;0.20;99.90
78289;DHT22;67539;48.752;12.922;2024-01-16T10:07:08;0.30;99.90
78289;DHT22;67539;48.752;12.922;2024-01-16T10:09:38;0.30;99.90
78289;DHT22;67539;48.752;12.922;2024-01-16T10:12:08;0.40;99.90
78289;DHT22;67539;48.752;12.922;2024-01-16T10:14:37;0.50;99.90
78289;DHT22;67539;48.752;12.922;2024-01-16T10:17:07;0.60;99.90
78289;DHT22;67539;48.752;12.922;2024-01-16T10:19:48;0.70;99.90
78289;DHT22;67539;48.752;12.922;2024-01-16T10:22:21;0.80;99.90
78289;DHT22;67539;48.752;12.922;2024-01-16T10:25:04;0.80;99.90
78289;DHT22;67539;48.752;12.922;2024-01-16T10:27:34;0.90;99.90
78289;DHT22;67539;48.752;12.922;2024-01-16T10:30:03;0.90;99.90
78289;DHT22;67539;48.752;12.922;2024-01-16T10:32:34;0.90;99.90
78289;DHT22;67539;48.752;12.922;2024-01-16T10:35:05;0.90;99.90
78289;DHT22;67539;48.752;12.922;2024-01-16T10:37:47;0.90;99.90
78289;DHT22;67539;48.752;12.922;2024-01-16T10:40:16;1.00;99.90
78289;DHT22;67539;48.752;12.922;2024-01-16T10:42:57;1.00;99.90
78289;DHT22;67539;48.752;12.922;2024-01-16T10:45:25;0.90;99.90
78289;DHT22;67539;48.752;12.922;2024-01-16T10:48:00;1.00;99.90
78289;DHT22;67539;48.752;12.922;2024-01-16T10:50:31;1.00;99.90
78289;DHT22;67539;48.752;12.922;2024-01-16T10:53:00;1.10;99.90
78289;DHT22;67539;48.752;12.922;2024-01-16T10:55:29;1.10;99.90
78289;DHT22;67539;48.752;12.922;2024-01-16T10:57:58;1.10;99.90
78289;DHT22;67539;48.752;12.922;2024-01-16T11:00:31;1.20;99.90
78289;DHT22;67539;48.752;12.922;2024-01-16T11:03:04;1.20;99.90
78289;DHT22;67539;48.752;12.922;2024-01-16T11:05:34;1.20;99.90
78289;DHT22;67539;48.752;12.922;2024-01-16T11:08:05;1.20;99.90
78289;DHT22;67539;48.752;12.922;2024-01-16T11:10:36;1.20;99.90
78289;DHT22;67539;48.752;12.922;2024-01-16T11:13:06;1.20;99.90
78289;DHT22;67539;48.752;12.922;2024-01-16T11:15:35;1.20;99.90
78289;DHT22;67539;48.752;12.922;2024-01-16T11:18:06;1.40;99.90
78289;DHT22;67539;48.752;12.922;2024-01-16T11:20:37;1.50;99.90
78289;DHT22;67539;48.752;12.922;2024-01-16T11:23:29;1.50;99.90
78289;DHT22;67539;48.752;12.922;2024-01-16T11:25:58;1.50;99.90
78289;DHT22;67539;48.752;12.922;2024-01-16T11:28:28;1.50;99.90
78289;DHT22;67539;48.752;12.922;2024-01-16T11:30:57;1.50;99.90
78289;DHT22;67539;48.752;12.922;2024-01-16T11:33:50;1.40;99.90
78289;DHT22;67539;48.752;12.922;2024-01-16T11:36:43;1.40;99.90
78289;DHT22;67539;48.752;12.922;2024-01-16T11:39:17;1.50;99.90
78289;DHT22;67539;48.752;12.922;2024-01-16T11:41:53;1.50;99.90
78289;DHT22;67539;48.752;12.922;2024-01-16T11:44:46;1.60;99.90
78289;DHT22;67539;48.752;12.922;2024-01-16T11:47:18;1.70;99.90
78289;DHT22;67539;48.752;12.922;2024-01-16T11:49:46;1.60;99.90
78289;DHT22;67539;48.752;12.922;2024-01-16T11:52:15;1.50;99.90
78289;DHT22;67539;48.752;12.922;2024-01-16T11:55:25;1.40;99.90
78289;DHT22;67539;48.752;12.922;2024-01-16T11:58:09;1.50;99.90
78289;DHT22;67539;48.752;12.922;2024-01-16T12:00:45;1.50;99.90
78289;DHT22;67539;48.752;12.922;2024-01-16T12:03:14;1.50;99.90
78289;DHT22;67539;48.752;12.922;2024-01-16T12:06:01;1.50;99.90
78289;DHT22;67539;48.752;12.922;2024-01-16T12:08:33;1.60;99.90
78289;DHT22;67539;48.752;12.922;2024-01-16T12:11:04;1.50;99.90
78289;DHT22;67539;48.752;12.922;2024-01-16T12:13:32;1.60;99.90
78289;DHT22;67539;48.752;12.922;2024-01-16T12:16:02;1.60;99.90
78289;DHT22;67539;48.752;12.922;2024-01-16T12:18:31;1.50;99.90
78289;DHT22;67539;48.752;12.922;2024-01-16T12:21:10;1.40;99.90
78289;DHT22;67539;48.752;12.922;2024-01-16T12:23:40;1.50;99.90
78289;DHT22;67539;48.752;12.922;2024-01-16T12:26:21;1.60;99.90
78289;DHT22;67539;48.752;12.922;2024-01-16T12:28:51;1.50;99.90
78289;DHT22;67539;48.752;12.922;2024-01-16T12:31:27;1.50;99.90
78289;DHT22;67539;48.752;12.922;2024-01-16T12:34:05;1.40;99.90
78289;DHT22;67539;48.752;12.922;2024-01-16T12:36:36;1.30;99.90
78289;DHT22;67539;48.752;12.922;2024-01-16T12:39:05;1.30;99.90
78289;DHT22;67539;48.752;12.922;2024-01-16T12:41:42;1.30;99.90
78289;DHT22;67539;48.752;12.922;2024-01-16T12:44:12;1.30;99.90
78289;DHT22;67539;48.752;12.922;2024-01-16T12:46:53;1.30;99.90
78289;DHT22;67539;48.752;12.922;2024-01-16T12:49:22;1.30;99.90
78289;DHT22;67539;48.752;12.922;2024-01-16T12:52:15;1.40;99.90
78289;DHT22;67539;48.752;12.922;2024-01-16T12:54:45;1.30;99.90
78289;DHT22;67539;48.752;12.922;2024-01-16T12:57:17;1.30;99.90
78289;DHT22;67539;48.752;12.922;2024-01-16T12:59:48;1.30;99.90
78289;DHT22;67539;48.752;12.922;2024-01-16T13:02:21;1.30;99.90
78289;DHT22;67539;48.752;12.922;2024-01-16T13:04:56;1.30;99.90
78289;DHT22;67539;48.752;12.922;2024-01-16T13:07:26;1.20;99.90
78289;DHT22;67539;48.752;12.922;2024-01-16T13:10:08;1.20;99.90
78289;DHT22;67539;48.752;12.922;2024-01-16T13:12:36;1.20;99.90
78289;DHT22;67539;48.752;12.922;2024-01-16T13:15:05;1.20;99.90
78289;DHT22;67539;48.752;12.922;2024-01-16T13:17:35;1.20;99.90
78289;DHT22;67539;48.752;12.922;2024-01-16T13:20:04;1.20;99.90
78289;DHT22;67539;48.752;12.922;2024-01-16T13:22:36;1.30;99.90
78289;DHT22;67539;48.752;12.922;2024-01-16T13:25:13;1.40;99.90
78289;DHT22;67539;48.752;12.922;2024-01-16T13:27:42;1.40;99.90
78289;DHT22;67539;48.752;12.922;2024-01-16T13:30:11;1.50;99.90
78289;DHT22;67539;48.752;12.922;2024-01-16T13:32:41;1.60;99.90
78289;DHT22;67539;48.752;12.922;2024-01-16T13:35:10;1.60;99.90
78289;DHT22;67539;48.752;12.922;2024-01-16T13:37:39;1.70;99.90
78289;DHT22;67539;48.752;12.922;2024-01-16T13:40:08;1.60;99.90
78289;DHT22;67539;48.752;12.922;2024-01-16T13:42:38;1.70;99.90
78289;DHT22;67539;48.752;12.922;2024-01-16T13:45:07;1.70;99.90
78289;DHT22;67539;48.752;12.922;2024-01-16T13:47:36;1.70;99.90
78289;DHT22;67539;48.752;12.922;2024-01-16T13:50:08;1.70;99.90
78289;DHT22;67539;48.752;12.922;2024-01-16T13:52:37;1.70;99.90
78289;DHT22;67539;48.752;12.922;2024-01-16T13:55:07;1.70;99.90
78289;DHT22;67539;48.752;12.922;2024-01-16T13:57:36;1.60;99.90
78289;DHT22;67539;48.752;12.922;2024-01-16T14:00:06;1.50;99.90
78289;DHT22;67539;48.752;12.922;2024-01-16T14:02:40;1.50;99.90
78289;DHT22;67539;48.752;12.922;2024-01-16T14:05:11;1.50;99.90
78289;DHT22;67539;48.752;12.922;2024-01-16T14:07:42;1.50;99.90
78289;DHT22;67539;48.752;12.922;2024-01-16T14:10:13;1.50;99.90
78289;DHT22;67539;48.752;12.922;2024-01-16T14:12:42;1.60;99.90
78289;DHT22;67539;48.752;12.922;2024-01-16T14:15:11;1.60;99.90
78289;DHT22;67539;48.752;12.922;2024-01-16T14:17:46;1.70;99.90
78289;DHT22;67539;48.752;12.922;2024-01-16T14:20:18;1.70;99.90
78289;DHT22;67539;48.752;12.922;2024-01-16T14:22:53;1.70;99.90
78289;DHT22;67539;48.752;12.922;2024-01-16T14:25:22;1.80;99.90
78289;DHT22;67539;48.752;12.922;2024-01-16T14:27:58;1.80;99.90
78289;DHT22;67539;48.752;12.922;2024-01-16T14:30:27;1.80;99.90
78289;DHT22;67539;48.752;12.922;2024-01-16T14:32:55;1.80;99.90
78289;DHT22;67539;48.752;12.922;2024-01-16T14:35:26;1.80;99.90
78289;DHT22;67539;48.752;12.922;2024-01-16T14:37:54;1.80;99.90
78289;DHT22;67539;48.752;12.922;2024-01-16T14:40:22;1.80;99.90
78289;DHT22;67539;48.752;12.922;2024-01-16T14:42:53;1.80;99.90
78289;DHT22;67539;48.752;12.922;2024-01-16T14:45:24;1.80;99.90
78289;DHT22;67539;48.752;12.922;2024-01-16T14:47:53;1.80;99.90
78289;DHT22;67539;48.752;12.922;2024-01-16T14:50:22;1.80;99.90
78289;DHT22;67539;48.752;12.922;2024-01-16T14:52:53;1.80;99.90
78289;DHT22;67539;48.752;12.922;2024-01-16T14:55:21;1.70;99.90
78289;DHT22;67539;48.752;12.922;2024-01-16T14:57:49;1.70;99.90
78289;DHT22;67539;48.752;12.922;2024-01-16T15:00:20;1.70;99.90
78289;DHT22;67539;48.752;12.922;2024-01-16T15:02:50;1.70;99.90
78289;DHT22;67539;48.752;12.922;2024-01-16T15:05:19;1.60;99.90
78289;DHT22;67539;48.752;12.922;2024-01-16T15:07:49;1.60;99.90
78289;DHT22;67539;48.752;12.922;2024-01-16T15:10:20;1.50;99.90
78289;DHT22;67539;48.752;12.922;2024-01-16T15:12:49;1.50;99.90
78289;DHT22;67539;48.752;12.922;2024-01-16T15:15:18;1.50;99.90
78289;DHT22;67539;48.752;12.922;2024-01-16T15:17:46;1.50;99.90
78289;DHT22;67539;48.752;12.922;2024-01-16T15:20:16;1.40;99.90
78289;DHT22;67539;48.752;12.922;2024-01-16T15:22:45;1.40;99.90
78289;DHT22;67539;48.752;12.922;2024-01-16T15:25:15;1.30;99.90
78289;DHT22;67539;48.752;12.922;2024-01-16T15:27:48;1.30;99.90
78289;DHT22;67539;48.752;12.922;2024-01-16T15:30:20;1.20;99.90
78289;DHT22;67539;48.752;12.922;2024-01-16T15:32:49;1.20;99.90
78289;DHT22;67539;48.752;12.922;2024-01-16T15:35:17;1.10;99.90
78289;DHT22;67539;48.752;12.922;2024-01-16T15:37:49;1.10;99.90
78289;DHT22;67539;48.752;12.922;2024-01-16T15:40:17;1.10;99.90